sensor_id;sensor_type;location;lat;lon;timestamp;temperature;humidity
25280;DHT22;13225;47.804;12.116;2023-01-10T00:00:20;4.30;99.90
25280;DHT22;13225;47.804;12.116;2023-01-10T00:02:46;4.20;99.90
25280;DHT22;13225;47.804;12.116;2023-01-10T00:05:12;4.30;99.90
25280;DHT22;13225;47.804;12.116;2023-01-10T00:07:37;4.20;99.90
25280;DHT22;13225;47.804;12.116;2023-01-10T00:10:03;4.20;99.90
25280;DHT22;13225;47.804;12.116;2023-01-10T00:12:28;4.30;99.90
25280;DHT22;13225;47.804;12.116;2023-01-10T00:15:13;4.30;99.90
25280;DHT22;13225;47.804;12.116;2023-01-10T00:17:38;4.20;99.90
25280;DHT22;13225;47.804;12.116;2023-01-10T00:20:05;4.30;99.90
25280;DHT22;13225;47.804;12.116;2023-01-10T00:22:30;4.30;99.90
25280;DHT22;13225;47.804;12.116;2023-01-10T00:24:56;4.20;99.90
25280;DHT22;13225;47.804;12.116;2023-01-10T00:27:21;4.20;99.90
25280;DHT22;13225;47.804;12.116;2023-01-10T00:29:48;4.30;99.90
25280;DHT22;13225;47.804;12.116;2023-01-10T00:32:18;4.30;99.90
25280;DHT22;13225;47.804;12.116;2023-01-10T00:34:44;4.20;99.90
25280;DHT22;13225;47.804;12.116;2023-01-10T00:37:10;4.20;99.90
25280;DHT22;13225;47.804;12.116;2023-01-10T00:39:35;4.20;99.90
25280;DHT22;13225;47.804;12.116;2023-01-10T00:42:01;4.30;99.90
25280;DHT22;13225;47.804;12.116;2023-01-10T00:44:45;4.40;99.90
25280;DHT22;13225;47.804;12.116;2023-01-10T00:47:13;4.40;99.90
25280;DHT22;13225;47.804;12.116;2023-01-10T00:49:39;4.40;99.90
25280;DHT22;13225;47.804;12.116;2023-01-10T00:52:05;4.50;99.90
25280;DHT22;13225;47.804;12.116;2023-01-10T00:54:30;4.50;99.90
25280;DHT22;13225;47.804;12.116;2023-01-10T00:56:56;4.50;99.90
25280;DHT22;13225;47.804;12.116;2023-01-10T00:59:22;4.50;99.90
25280;DHT22;13225;47.804;12.116;2023-01-10T01:01:49;4.50;99.90
25280;DHT22;13225;47.804;12.116;2023-01-10T01:04:15;4.50;99.90
25280;DHT22;13225;47.804;12.116;2023-01-10T01:06:43;4.60;99.90
25280;DHT22;13225;47.804;12.116;2023-01-10T01:09:09;4.60;99.90
25280;DHT22;13225;47.804;12.116;2023-01-10T01:11:34;4.60;99.90
25280;DHT22;13225;47.804;12.116;2023-01-10T01:14:00;4.60;99.90
25280;DHT22;13225;47.804;12.116;2023-01-10T01:16:25;4.60;99.90
25280;DHT22;13225;47.804;12.116;2023-01-10T01:18:51;4.60;99.90
25280;DHT22;13225;47.804;12.116;2023-01-10T01:21:17;4.60;99.90
25280;DHT22;13225;47.804;12.116;2023-01-10T01:23:42;4.60;99.90
25280;DHT22;13225;47.804;12.116;2023-01-10T01:26:08;4.60;99.90
25280;DHT22;13225;47.804;12.116;2023-01-10T01:28:35;4.60;99.90
25280;DHT22;13225;47.804;12.116;2023-01-10T01:31:09;4.60;99.90
25280;DHT22;13225;47.804;12.116;2023-01-10T01:33:35;4.60;99.90
25280;DHT22;13225;47.804;12.116;2023-01-10T01:36:01;4.50;99.90
25280;DHT22;13225;47.804;12.116;2023-01-10T01:38:27;4.50;99.90
25280;DHT22;13225;47.804;12.116;2023-01-10T01:40:52;4.50;99.90
25280;DHT22;13225;47.804;12.116;2023-01-10T01:43:25;4.40;99.90
25280;DHT22;13225;47.804;12.116;2023-01-10T01:45:51;4.50;99.90
25280;DHT22;13225;47.804;12.116;2023-01-10T01:48:36;4.40;99.90
25280;DHT22;13225;47.804;12.116;2023-01-10T01:51:08;4.40;99.90
25280;DHT22;13225;47.804;12.116;2023-01-10T01:53:51;4.40;99.90
25280;DHT22;13225;47.804;12.116;2023-01-10T01:56:27;4.40;99.90
25280;DHT22;13225;47.804;12.116;2023-01-10T01:59:04;4.40;99.90
25280;DHT22;13225;47.804;12.116;2023-01-10T02:01:31;4.40;99.90
25280;DHT22;13225;47.804;12.116;2023-01-10T02:04:06;4.40;99.90
25280;DHT22;13225;47.804;12.116;2023-01-10T02:06:32;4.40;99.90
25280;DHT22;13225;47.804;12.116;2023-01-10T02:09:06;4.40;99.90
25280;DHT22;13225;47.804;12.116;2023-01-10T02:11:33;4.50;99.90
25280;DHT22;13225;47.804;12.116;2023-01-10T02:13:59;4.50;99.90
25280;DHT22;13225;47.804;12.116;2023-01-10T02:16:25;4.50;99.90
25280;DHT22;13225;47.804;12.116;2023-01-10T02:18:51;4.50;99.90
25280;DHT22;13225;47.804;12.116;2023-01-10T02:27:13;4.60;99.90
25280;DHT22;13225;47.804;12.116;2023-01-10T02:38:30;4.50;99.90
25280;DHT22;13225;47.804;12.116;2023-01-10T02:43:59;4.60;99.90
25280;DHT22;13225;47.804;12.116;2023-01-10T02:46:29;4.60;99.90
25280;DHT22;13225;47.804;12.116;2023-01-10T02:48:55;4.60;99.90
25280;DHT22;13225;47.804;12.116;2023-01-10T02:51:24;4.50;99.90
25280;DHT22;13225;47.804;12.116;2023-01-10T02:53:59;4.50;99.90
25280;DHT22;13225;47.804;12.116;2023-01-10T03:01:58;4.50;99.90
25280;DHT22;13225;47.804;12.116;2023-01-10T03:07:36;4.30;99.90
25280;DHT22;13225;47.804;12.116;2023-01-10T03:10:12;4.20;99.90
25280;DHT22;13225;47.804;12.116;2023-01-10T03:15:13;4.10;99.90
25280;DHT22;13225;47.804;12.116;2023-01-10T03:17:40;4.00;99.90
25280;DHT22;13225;47.804;12.116;2023-01-10T03:20:08;4.00;99.90
25280;DHT22;13225;47.804;12.116;2023-01-10T03:22:36;4.00;99.90
25280;DHT22;13225;47.804;12.116;2023-01-10T03:25:06;4.00;99.90
25280;DHT22;13225;47.804;12.116;2023-01-10T03:30:05;4.00;99.90
25280;DHT22;13225;47.804;12.116;2023-01-10T03:32:31;4.00;99.90
25280;DHT22;13225;47.804;12.116;2023-01-10T03:34:58;3.90;99.90
25280;DHT22;13225;47.804;12.116;2023-01-10T03:37:33;3.90;99.90
25280;DHT22;13225;47.804;12.116;2023-01-10T03:42:52;4.00;99.90
25280;DHT22;13225;47.804;12.116;2023-01-10T03:45:43;4.00;99.90
25280;DHT22;13225;47.804;12.116;2023-01-10T03:48:15;4.00;99.90
25280;DHT22;13225;47.804;12.116;2023-01-10T03:50:42;4.00;99.90
25280;DHT22;13225;47.804;12.116;2023-01-10T03:53:11;4.10;99.90
25280;DHT22;13225;47.804;12.116;2023-01-10T03:55:41;4.20;99.90
25280;DHT22;13225;47.804;12.116;2023-01-10T03:58:08;4.20;99.90
25280;DHT22;13225;47.804;12.116;2023-01-10T04:00:34;4.30;99.90
25280;DHT22;13225;47.804;12.116;2023-01-10T04:02:59;4.30;99.90
25280;DHT22;13225;47.804;12.116;2023-01-10T04:05:25;4.30;99.90
25280;DHT22;13225;47.804;12.116;2023-01-10T04:07:51;4.30;99.90
25280;DHT22;13225;47.804;12.116;2023-01-10T04:10:16;4.30;99.90
25280;DHT22;13225;47.804;12.116;2023-01-10T04:12:42;4.30;99.90
25280;DHT22;13225;47.804;12.116;2023-01-10T04:15:08;4.30;99.90
25280;DHT22;13225;47.804;12.116;2023-01-10T04:17:34;4.30;99.90
25280;DHT22;13225;47.804;12.116;2023-01-10T04:19:59;4.30;99.90
25280;DHT22;13225;47.804;12.116;2023-01-10T04:22:25;4.30;99.90
25280;DHT22;13225;47.804;12.116;2023-01-10T04:24:51;4.30;99.90
25280;DHT22;13225;47.804;12.116;2023-01-10T04:27:19;4.30;99.90
25280;DHT22;13225;47.804;12.116;2023-01-10T04:29:45;4.30;99.90
25280;DHT22;13225;47.804;12.116;2023-01-10T04:32:11;4.30;99.90
25280;DHT22;13225;47.804;12.116;2023-01-10T04:34:36;4.20;99.90
25280;DHT22;13225;47.804;12.116;2023-01-10T04:37:02;4.30;99.90
25280;DHT22;13225;47.804;12.116;2023-01-10T04:39:27;4.30;99.90
25280;DHT22;13225;47.804;12.116;2023-01-10T04:41:53;4.30;99.90
25280;DHT22;13225;47.804;12.116;2023-01-10T04:44:19;4.30;99.90
25280;DHT22;13225;47.804;12.116;2023-01-10T04:46:44;4.30;99.90
25280;DHT22;13225;47.804;12.116;2023-01-10T04:49:10;4.30;99.90
25280;DHT22;13225;47.804;12.116;2023-01-10T04:51:35;4.30;99.90
25280;DHT22;13225;47.804;12.116;2023-01-10T04:54:01;4.30;99.90
25280;DHT22;13225;47.804;12.116;2023-01-10T04:56:27;4.30;99.90
25280;DHT22;13225;47.804;12.116;2023-01-10T04:58:52;4.30;99.90
25280;DHT22;13225;47.804;12.116;2023-01-10T05:01:20;4.20;99.90
25280;DHT22;13225;47.804;12.116;2023-01-10T05:03:50;4.20;99.90
25280;DHT22;13225;47.804;12.116;2023-01-10T05:06:16;4.10;99.90
25280;DHT22;13225;47.804;12.116;2023-01-10T05:08:42;4.00;99.90
25280;DHT22;13225;47.804;12.116;2023-01-10T05:11:08;4.00;99.90
25280;DHT22;13225;47.804;12.116;2023-01-10T05:13:34;4.00;99.90
25280;DHT22;13225;47.804;12.116;2023-01-10T05:15:59;3.90;99.90
25280;DHT22;13225;47.804;12.116;2023-01-10T05:18:27;3.90;99.90
25280;DHT22;13225;47.804;12.116;2023-01-10T05:21:10;3.90;99.90
25280;DHT22;13225;47.804;12.116;2023-01-10T05:23:36;3.90;99.90
25280;DHT22;13225;47.804;12.116;2023-01-10T05:26:11;3.90;99.90
25280;DHT22;13225;47.804;12.116;2023-01-10T05:28:38;3.90;99.90
25280;DHT22;13225;47.804;12.116;2023-01-10T05:31:15;3.90;99.90
25280;DHT22;13225;47.804;12.116;2023-01-10T05:33:45;3.90;99.90
25280;DHT22;13225;47.804;12.116;2023-01-10T05:36:13;3.80;99.90
25280;DHT22;13225;47.804;12.116;2023-01-10T05:38:39;3.90;99.90
25280;DHT22;13225;47.804;12.116;2023-01-10T05:41:04;3.80;99.90
25280;DHT22;13225;47.804;12.116;2023-01-10T05:43:30;3.80;99.90
25280;DHT22;13225;47.804;12.116;2023-01-10T05:45:55;3.90;99.90
25280;DHT22;13225;47.804;12.116;2023-01-10T05:48:21;3.90;99.90
25280;DHT22;13225;47.804;12.116;2023-01-10T05:50:48;4.00;99.90
25280;DHT22;13225;47.804;12.116;2023-01-10T05:53:14;4.00;99.90
25280;DHT22;13225;47.804;12.116;2023-01-10T05:55:40;4.00;99.90
25280;DHT22;13225;47.804;12.116;2023-01-10T05:58:06;4.00;99.90
25280;DHT22;13225;47.804;12.116;2023-01-10T06:00:31;4.00;99.90
25280;DHT22;13225;47.804;12.116;2023-01-10T06:02:57;4.00;99.90
25280;DHT22;13225;47.804;12.116;2023-01-10T06:05:23;3.90;99.90
25280;DHT22;13225;47.804;12.116;2023-01-10T06:07:49;3.90;99.90
25280;DHT22;13225;47.804;12.116;2023-01-10T06:10:15;3.90;99.90
25280;DHT22;13225;47.804;12.116;2023-01-10T06:12:41;3.90;99.90
25280;DHT22;13225;47.804;12.116;2023-01-10T06:15:08;3.90;99.90
25280;DHT22;13225;47.804;12.116;2023-01-10T06:17:34;3.70;99.90
25280;DHT22;13225;47.804;12.116;2023-01-10T06:19:59;3.60;99.90
25280;DHT22;13225;47.804;12.116;2023-01-10T06:22:25;3.60;99.90
25280;DHT22;13225;47.804;12.116;2023-01-10T06:24:52;3.60;99.90
25280;DHT22;13225;47.804;12.116;2023-01-10T06:27:18;3.60;99.90
25280;DHT22;13225;47.804;12.116;2023-01-10T06:29:44;3.60;99.90
25280;DHT22;13225;47.804;12.116;2023-01-10T06:32:09;3.50;99.90
25280;DHT22;13225;47.804;12.116;2023-01-10T06:34:35;3.60;99.90
25280;DHT22;13225;47.804;12.116;2023-01-10T06:37:00;3.60;99.90
25280;DHT22;13225;47.804;12.116;2023-01-10T06:39:26;3.60;99.90
25280;DHT22;13225;47.804;12.116;2023-01-10T06:41:52;3.60;99.90
25280;DHT22;13225;47.804;12.116;2023-01-10T06:44:17;3.60;99.90
25280;DHT22;13225;47.804;12.116;2023-01-10T06:46:43;3.50;99.90
25280;DHT22;13225;47.804;12.116;2023-01-10T06:49:09;3.60;99.90
25280;DHT22;13225;47.804;12.116;2023-01-10T06:51:34;3.50;99.90
25280;DHT22;13225;47.804;12.116;2023-01-10T06:54:00;3.60;99.90
25280;DHT22;13225;47.804;12.116;2023-01-10T06:56:25;3.60;99.90
25280;DHT22;13225;47.804;12.116;2023-01-10T06:58:51;3.60;99.90
25280;DHT22;13225;47.804;12.116;2023-01-10T07:01:19;3.60;99.90
25280;DHT22;13225;47.804;12.116;2023-01-10T07:03:45;3.60;99.90
25280;DHT22;13225;47.804;12.116;2023-01-10T07:06:11;3.60;99.90
25280;DHT22;13225;47.804;12.116;2023-01-10T07:08:38;3.70;99.90
25280;DHT22;13225;47.804;12.116;2023-01-10T07:11:05;3.60;99.90
25280;DHT22;13225;47.804;12.116;2023-01-10T07:13:31;3.60;99.90
25280;DHT22;13225;47.804;12.116;2023-01-10T07:16:05;3.60;99.90
25280;DHT22;13225;47.804;12.116;2023-01-10T07:18:33;3.70;99.90
25280;DHT22;13225;47.804;12.116;2023-01-10T07:20:59;3.70;99.90
25280;DHT22;13225;47.804;12.116;2023-01-10T07:23:24;3.60;99.90
25280;DHT22;13225;47.804;12.116;2023-01-10T07:25:50;3.70;99.90
25280;DHT22;13225;47.804;12.116;2023-01-10T07:28:16;3.70;99.90
25280;DHT22;13225;47.804;12.116;2023-01-10T07:30:41;3.80;99.90
25280;DHT22;13225;47.804;12.116;2023-01-10T07:33:07;3.70;99.90
25280;DHT22;13225;47.804;12.116;2023-01-10T07:35:32;3.70;99.90
25280;DHT22;13225;47.804;12.116;2023-01-10T07:37:58;3.70;99.90
25280;DHT22;13225;47.804;12.116;2023-01-10T07:40:25;3.70;99.90
25280;DHT22;13225;47.804;12.116;2023-01-10T07:43:01;3.70;99.90
25280;DHT22;13225;47.804;12.116;2023-01-10T07:45:28;3.70;99.90
25280;DHT22;13225;47.804;12.116;2023-01-10T07:47:58;3.70;99.90
25280;DHT22;13225;47.804;12.116;2023-01-10T07:50:24;3.70;99.90
25280;DHT22;13225;47.804;12.116;2023-01-10T07:52:50;3.70;99.90
25280;DHT22;13225;47.804;12.116;2023-01-10T07:55:15;3.70;99.90
25280;DHT22;13225;47.804;12.116;2023-01-10T07:57:42;3.60;99.90
25280;DHT22;13225;47.804;12.116;2023-01-10T08:00:08;3.70;99.90
25280;DHT22;13225;47.804;12.116;2023-01-10T08:02:34;3.70;99.90
25280;DHT22;13225;47.804;12.116;2023-01-10T08:04:59;3.70;99.90
25280;DHT22;13225;47.804;12.116;2023-01-10T08:07:25;3.70;99.90
25280;DHT22;13225;47.804;12.116;2023-01-10T08:09:52;3.70;99.90
25280;DHT22;13225;47.804;12.116;2023-01-10T08:12:19;3.70;99.90
25280;DHT22;13225;47.804;12.116;2023-01-10T08:14:45;3.70;99.90
25280;DHT22;13225;47.804;12.116;2023-01-10T08:17:10;3.70;99.90
25280;DHT22;13225;47.804;12.116;2023-01-10T08:19:36;3.80;99.90
25280;DHT22;13225;47.804;12.116;2023-01-10T08:22:02;3.80;99.90
25280;DHT22;13225;47.804;12.116;2023-01-10T08:24:27;3.80;99.90
25280;DHT22;13225;47.804;12.116;2023-01-10T08:26:53;3.80;99.90
25280;DHT22;13225;47.804;12.116;2023-01-10T08:29:22;3.80;99.90
25280;DHT22;13225;47.804;12.116;2023-01-10T08:31:47;3.80;99.90
25280;DHT22;13225;47.804;12.116;2023-01-10T08:34:13;3.90;99.90
25280;DHT22;13225;47.804;12.116;2023-01-10T08:36:38;3.90;99.90
25280;DHT22;13225;47.804;12.116;2023-01-10T08:39:04;4.00;99.90
25280;DHT22;13225;47.804;12.116;2023-01-10T08:41:30;3.90;99.90
25280;DHT22;13225;47.804;12.116;2023-01-10T08:43:55;3.90;99.90
25280;DHT22;13225;47.804;12.116;2023-01-10T08:46:21;3.90;99.90
25280;DHT22;13225;47.804;12.116;2023-01-10T08:48:47;3.90;99.90
25280;DHT22;13225;47.804;12.116;2023-01-10T08:51:15;3.90;99.90
25280;DHT22;13225;47.804;12.116;2023-01-10T08:53:41;3.90;99.90
25280;DHT22;13225;47.804;12.116;2023-01-10T08:56:07;4.00;99.90
25280;DHT22;13225;47.804;12.116;2023-01-10T08:58:33;4.00;99.90
25280;DHT22;13225;47.804;12.116;2023-01-10T09:01:02;4.10;99.90
25280;DHT22;13225;47.804;12.116;2023-01-10T09:03:28;4.10;99.90
25280;DHT22;13225;47.804;12.116;2023-01-10T09:05:53;4.20;99.90
25280;DHT22;13225;47.804;12.116;2023-01-10T09:08:19;4.20;99.90
25280;DHT22;13225;47.804;12.116;2023-01-10T09:10:44;4.30;99.90
25280;DHT22;13225;47.804;12.116;2023-01-10T09:13:10;4.30;99.90
25280;DHT22;13225;47.804;12.116;2023-01-10T09:15:36;4.30;99.90
25280;DHT22;13225;47.804;12.116;2023-01-10T09:18:05;4.40;99.90
25280;DHT22;13225;47.804;12.116;2023-01-10T09:20:33;4.40;99.90
25280;DHT22;13225;47.804;12.116;2023-01-10T09:23:07;4.40;99.90
25280;DHT22;13225;47.804;12.116;2023-01-10T09:25:33;4.50;99.90
25280;DHT22;13225;47.804;12.116;2023-01-10T09:28:00;4.50;99.90
25280;DHT22;13225;47.804;12.116;2023-01-10T09:30:26;4.60;99.90
25280;DHT22;13225;47.804;12.116;2023-01-10T09:32:53;4.50;99.90
25280;DHT22;13225;47.804;12.116;2023-01-10T09:35:19;4.60;99.90
25280;DHT22;13225;47.804;12.116;2023-01-10T09:37:45;4.60;99.90
25280;DHT22;13225;47.804;12.116;2023-01-10T09:43:08;4.60;99.90
25280;DHT22;13225;47.804;12.116;2023-01-10T09:53:45;4.00;99.90
25280;DHT22;13225;47.804;12.116;2023-01-10T09:56:13;3.80;99.90
25280;DHT22;13225;47.804;12.116;2023-01-10T09:58:41;3.80;99.90
25280;DHT22;13225;47.804;12.116;2023-01-10T10:01:28;3.90;99.90
25280;DHT22;13225;47.804;12.116;2023-01-10T10:04:20;4.00;99.90
25280;DHT22;13225;47.804;12.116;2023-01-10T10:06:51;4.10;99.90
25280;DHT22;13225;47.804;12.116;2023-01-10T10:09:30;4.20;99.90
25280;DHT22;13225;47.804;12.116;2023-01-10T10:15:10;4.40;99.90
25280;DHT22;13225;47.804;12.116;2023-01-10T10:32:04;4.20;99.90
25280;DHT22;13225;47.804;12.116;2023-01-10T10:34:39;4.30;99.90
25280;DHT22;13225;47.804;12.116;2023-01-10T10:37:32;4.40;99.90
25280;DHT22;13225;47.804;12.116;2023-01-10T10:40:23;4.40;99.90
25280;DHT22;13225;47.804;12.116;2023-01-10T10:42:55;4.40;99.90
25280;DHT22;13225;47.804;12.116;2023-01-10T10:51:02;4.90;99.90
25280;DHT22;13225;47.804;12.116;2023-01-10T10:53:30;4.90;99.90
25280;DHT22;13225;47.804;12.116;2023-01-10T10:55:57;5.10;99.90
25280;DHT22;13225;47.804;12.116;2023-01-10T10:58:22;5.10;99.90
25280;DHT22;13225;47.804;12.116;2023-01-10T11:00:50;5.10;99.90
25280;DHT22;13225;47.804;12.116;2023-01-10T11:03:48;5.20;99.90
25280;DHT22;13225;47.804;12.116;2023-01-10T11:06:17;5.30;99.90
25280;DHT22;13225;47.804;12.116;2023-01-10T11:08:46;5.40;99.90
25280;DHT22;13225;47.804;12.116;2023-01-10T11:11:20;5.30;99.90
25280;DHT22;13225;47.804;12.116;2023-01-10T11:13:56;5.40;99.90
25280;DHT22;13225;47.804;12.116;2023-01-10T11:16:25;5.50;99.90
25280;DHT22;13225;47.804;12.116;2023-01-10T11:19:12;5.70;99.90
25280;DHT22;13225;47.804;12.116;2023-01-10T11:21:39;5.80;99.90
25280;DHT22;13225;47.804;12.116;2023-01-10T11:24:22;5.80;99.90
25280;DHT22;13225;47.804;12.116;2023-01-10T11:26:48;5.90;99.90
25280;DHT22;13225;47.804;12.116;2023-01-10T11:29:23;5.80;99.90
25280;DHT22;13225;47.804;12.116;2023-01-10T11:31:50;5.80;99.90
25280;DHT22;13225;47.804;12.116;2023-01-10T11:34:23;5.80;99.90
25280;DHT22;13225;47.804;12.116;2023-01-10T11:36:57;5.80;99.90
25280;DHT22;13225;47.804;12.116;2023-01-10T11:39:23;5.80;99.90
25280;DHT22;13225;47.804;12.116;2023-01-10T11:41:49;6.10;99.90
25280;DHT22;13225;47.804;12.116;2023-01-10T11:44:28;6.10;99.90
25280;DHT22;13225;47.804;12.116;2023-01-10T11:47:00;6.00;99.90
25280;DHT22;13225;47.804;12.116;2023-01-10T11:49:38;5.80;99.90
25280;DHT22;13225;47.804;12.116;2023-01-10T11:52:25;5.60;99.90
25280;DHT22;13225;47.804;12.116;2023-01-10T11:54:52;5.50;99.90
25280;DHT22;13225;47.804;12.116;2023-01-10T11:57:23;5.60;99.90
25280;DHT22;13225;47.804;12.116;2023-01-10T11:59:57;5.50;99.90
25280;DHT22;13225;47.804;12.116;2023-01-10T12:04:51;5.50;99.90
25280;DHT22;13225;47.804;12.116;2023-01-10T12:07:19;5.50;99.90
25280;DHT22;13225;47.804;12.116;2023-01-10T12:09:56;5.40;99.90
25280;DHT22;13225;47.804;12.116;2023-01-10T12:12:27;5.40;99.90
25280;DHT22;13225;47.804;12.116;2023-01-10T12:14:55;5.30;99.90
25280;DHT22;13225;47.804;12.116;2023-01-10T12:17:33;5.30;99.90
25280;DHT22;13225;47.804;12.116;2023-01-10T12:20:01;5.30;99.90
25280;DHT22;13225;47.804;12.116;2023-01-10T12:22:38;5.20;99.90
25280;DHT22;13225;47.804;12.116;2023-01-10T12:25:31;5.20;99.90
25280;DHT22;13225;47.804;12.116;2023-01-10T12:27:56;5.20;99.90
25280;DHT22;13225;47.804;12.116;2023-01-10T12:30:34;5.10;99.90
25280;DHT22;13225;47.804;12.116;2023-01-10T12:33:09;5.10;99.90
25280;DHT22;13225;47.804;12.116;2023-01-10T12:38:39;5.00;99.90
25280;DHT22;13225;47.804;12.116;2023-01-10T12:41:44;5.00;99.90
25280;DHT22;13225;47.804;12.116;2023-01-10T12:44:34;5.00;99.90
25280;DHT22;13225;47.804;12.116;2023-01-10T12:49:53;5.00;99.90
25280;DHT22;13225;47.804;12.116;2023-01-10T12:52:28;5.10;99.90
25280;DHT22;13225;47.804;12.116;2023-01-10T12:54:55;5.10;99.90
25280;DHT22;13225;47.804;12.116;2023-01-10T12:57:34;5.10;99.90
25280;DHT22;13225;47.804;12.116;2023-01-10T13:00:04;5.10;99.90
25280;DHT22;13225;47.804;12.116;2023-01-10T13:02:39;5.20;99.90
25280;DHT22;13225;47.804;12.116;2023-01-10T13:05:15;5.30;99.90
25280;DHT22;13225;47.804;12.116;2023-01-10T13:07:43;5.30;99.90
25280;DHT22;13225;47.804;12.116;2023-01-10T13:10:14;5.40;99.90
25280;DHT22;13225;47.804;12.116;2023-01-10T13:12:43;5.50;99.90
25280;DHT22;13225;47.804;12.116;2023-01-10T13:15:19;5.50;99.90
25280;DHT22;13225;47.804;12.116;2023-01-10T13:18:15;5.50;99.90
25280;DHT22;13225;47.804;12.116;2023-01-10T13:20:42;5.60;99.90
25280;DHT22;13225;47.804;12.116;2023-01-10T13:23:22;5.90;99.90
25280;DHT22;13225;47.804;12.116;2023-01-10T13:25:59;6.00;99.90
25280;DHT22;13225;47.804;12.116;2023-01-10T13:28:28;6.00;99.90
25280;DHT22;13225;47.804;12.116;2023-01-10T13:30:56;6.00;99.90
25280;DHT22;13225;47.804;12.116;2023-01-10T13:33:50;6.10;99.90
25280;DHT22;13225;47.804;12.116;2023-01-10T13:36:29;5.80;99.90
25280;DHT22;13225;47.804;12.116;2023-01-10T13:39:02;5.70;99.90
25280;DHT22;13225;47.804;12.116;2023-01-10T14:06:02;5.60;99.90
25280;DHT22;13225;47.804;12.116;2023-01-10T14:08:30;5.60;99.90
25280;DHT22;13225;47.804;12.116;2023-01-10T14:11:05;5.90;99.90
25280;DHT22;13225;47.804;12.116;2023-01-10T14:13:31;6.10;99.90
25280;DHT22;13225;47.804;12.116;2023-01-10T14:15:57;6.00;99.90
25280;DHT22;13225;47.804;12.116;2023-01-10T14:18:27;5.90;99.90
25280;DHT22;13225;47.804;12.116;2023-01-10T14:21:22;5.70;99.90
25280;DHT22;13225;47.804;12.116;2023-01-10T14:23:49;5.70;99.90
25280;DHT22;13225;47.804;12.116;2023-01-10T14:26:33;5.60;99.90
25280;DHT22;13225;47.804;12.116;2023-01-10T14:29:04;5.70;99.90
25280;DHT22;13225;47.804;12.116;2023-01-10T14:31:32;5.70;99.90
25280;DHT22;13225;47.804;12.116;2023-01-10T14:34:01;5.70;99.90
25280;DHT22;13225;47.804;12.116;2023-01-10T14:36:32;5.80;99.90
25280;DHT22;13225;47.804;12.116;2023-01-10T14:39:05;5.70;99.90
25280;DHT22;13225;47.804;12.116;2023-01-10T14:41:37;5.60;99.90
25280;DHT22;13225;47.804;12.116;2023-01-10T14:46:51;5.50;99.90
25280;DHT22;13225;47.804;12.116;2023-01-10T14:49:49;5.40;99.90
25280;DHT22;13225;47.804;12.116;2023-01-10T14:52:20;5.40;99.90
25280;DHT22;13225;47.804;12.116;2023-01-10T14:54:47;5.30;99.90
25280;DHT22;13225;47.804;12.116;2023-01-10T14:57:21;5.30;99.90
25280;DHT22;13225;47.804;12.116;2023-01-10T14:59:48;5.30;99.90
25280;DHT22;13225;47.804;12.116;2023-01-10T15:02:24;5.20;99.90
25280;DHT22;13225;47.804;12.116;2023-01-10T15:04:58;5.20;99.90
25280;DHT22;13225;47.804;12.116;2023-01-10T15:07:26;5.20;99.90
25280;DHT22;13225;47.804;12.116;2023-01-10T15:09:54;5.10;99.90
25280;DHT22;13225;47.804;12.116;2023-01-10T15:12:23;5.00;99.90
25280;DHT22;13225;47.804;12.116;2023-01-10T15:15:03;4.90;99.90
25280;DHT22;13225;47.804;12.116;2023-01-10T15:17:30;4.90;99.90
25280;DHT22;13225;47.804;12.116;2023-01-10T15:19:56;4.90;99.90
25280;DHT22;13225;47.804;12.116;2023-01-10T15:22:29;4.90;99.90
25280;DHT22;13225;47.804;12.116;2023-01-10T15:25:05;4.80;99.90
25280;DHT22;13225;47.804;12.116;2023-01-10T15:27:32;4.80;99.90
25280;DHT22;13225;47.804;12.116;2023-01-10T15:29:59;4.80;99.90
25280;DHT22;13225;47.804;12.116;2023-01-10T15:32:36;4.80;99.90
25280;DHT22;13225;47.804;12.116;2023-01-10T15:35:05;4.70;99.90
25280;DHT22;13225;47.804;12.116;2023-01-10T15:37:34;4.70;99.90
25280;DHT22;13225;47.804;12.116;2023-01-10T15:40:04;4.70;99.90
25280;DHT22;13225;47.804;12.116;2023-01-10T15:42:31;4.60;99.90
25280;DHT22;13225;47.804;12.116;2023-01-10T15:45:27;4.60;99.90
25280;DHT22;13225;47.804;12.116;2023-01-10T15:47:55;4.60;99.90
25280;DHT22;13225;47.804;12.116;2023-01-10T15:50:37;4.50;99.90
25280;DHT22;13225;47.804;12.116;2023-01-10T15:53:06;4.40;99.90
25280;DHT22;13225;47.804;12.116;2023-01-10T15:55:54;4.40;99.90
25280;DHT22;13225;47.804;12.116;2023-01-10T15:58:27;4.30;99.90
25280;DHT22;13225;47.804;12.116;2023-01-10T16:00:55;4.20;99.90
25280;DHT22;13225;47.804;12.116;2023-01-10T16:03:37;4.10;99.90
25280;DHT22;13225;47.804;12.116;2023-01-10T16:06:04;4.00;99.90
25280;DHT22;13225;47.804;12.116;2023-01-10T16:08:35;4.00;99.90
25280;DHT22;13225;47.804;12.116;2023-01-10T16:11:07;4.00;99.90
25280;DHT22;13225;47.804;12.116;2023-01-10T16:13:40;4.00;99.90
25280;DHT22;13225;47.804;12.116;2023-01-10T16:16:14;4.00;99.90
25280;DHT22;13225;47.804;12.116;2023-01-10T16:18:41;3.90;99.90
25280;DHT22;13225;47.804;12.116;2023-01-10T16:21:07;3.90;99.90
25280;DHT22;13225;47.804;12.116;2023-01-10T16:23:35;3.80;99.90
25280;DHT22;13225;47.804;12.116;2023-01-10T16:26:04;3.70;99.90
25280;DHT22;13225;47.804;12.116;2023-01-10T16:28:31;3.70;99.90
25280;DHT22;13225;47.804;12.116;2023-01-10T16:31:04;3.60;99.90
25280;DHT22;13225;47.804;12.116;2023-01-10T16:33:30;3.60;99.90
25280;DHT22;13225;47.804;12.116;2023-01-10T16:35:57;3.60;99.90
25280;DHT22;13225;47.804;12.116;2023-01-10T16:38:25;3.50;99.90
25280;DHT22;13225;47.804;12.116;2023-01-10T16:40:53;3.50;99.90
25280;DHT22;13225;47.804;12.116;2023-01-10T16:43:21;3.40;99.90
25280;DHT22;13225;47.804;12.116;2023-01-10T16:45:48;3.30;99.90
25280;DHT22;13225;47.804;12.116;2023-01-10T16:48:15;3.10;99.90
25280;DHT22;13225;47.804;12.116;2023-01-10T16:50:42;3.10;99.90
25280;DHT22;13225;47.804;12.116;2023-01-10T16:53:16;3.00;99.90
25280;DHT22;13225;47.804;12.116;2023-01-10T16:55:50;2.90;99.90
25280;DHT22;13225;47.804;12.116;2023-01-10T16:58:18;2.80;99.90
25280;DHT22;13225;47.804;12.116;2023-01-10T17:00:46;2.60;99.90
25280;DHT22;13225;47.804;12.116;2023-01-10T17:03:19;2.50;99.90
25280;DHT22;13225;47.804;12.116;2023-01-10T17:05:45;2.30;99.90
25280;DHT22;13225;47.804;12.116;2023-01-10T17:08:19;2.20;99.90
25280;DHT22;13225;47.804;12.116;2023-01-10T17:10:48;2.20;99.90
25280;DHT22;13225;47.804;12.116;2023-01-10T17:13:22;2.00;99.90
25280;DHT22;13225;47.804;12.116;2023-01-10T17:15:48;1.90;99.90
25280;DHT22;13225;47.804;12.116;2023-01-10T17:18:14;1.90;99.90
25280;DHT22;13225;47.804;12.116;2023-01-10T17:20:39;1.80;99.90
25280;DHT22;13225;47.804;12.116;2023-01-10T17:23:05;1.80;99.90
25280;DHT22;13225;47.804;12.116;2023-01-10T17:25:31;2.00;99.90
25280;DHT22;13225;47.804;12.116;2023-01-10T17:27:56;2.00;99.90